Katowice International Airport

EPKT · 西里西亚省, 波兰

罗盘
风向 的 风向 070° Katowice International Airport 8/26
风: 9 kt, 3 beaufort

8 kt

3 kt
改变
0 1.000 2.000 3.000 4.000 5.000
FEW 300 ft
OVC 500 ft
METAR EPKT 020630Z 07009KT 9999 -SN FEW003 OVC005 M02/M03 Q1024 RESN

METAR Katowice International Airport - EPKT/KTW

Katowice International Airport是,波兰中的中型机场。 该机场有一条跑道: 8/26. 该领域的国际民航组织标志是EPKT 它的国际航空运输协会代码是KTW.

这份报告是针对2022年12月2日 07:30, 当地时间在Katowice International Airport进行的。

机场观察

风向为070°,速度为9 kt。

可见度为10 km 或者更多。

有几云在300 ft的高度 和 乌云密布在500 ft的高度。 破损或更高的上限为500 ft。

当前天气为光 雪。 温度为-2 °C,阵风为-9 °C。 露点为-3 °C,相对湿度为93%。 海平面上的气压为1024 hPa (QNH)。 最近是雪。

白天

今天,太阳从07:23升起,在15:42降落。 这适用于Katowice International Airport,世界夏令时可能有所不同。 当地时间与世界标准时间之间的时差为+1 小时。 当前,没有夏令时有效。

公司介绍

我们没有关于这个机场的公司信息。

体会

到Vliegles.nl去找飞行课程,跳伞和其他飞行体验。 浏览页面,了解Katowice International Airport附近所有可用的活动。 你也可以使用搜索功能来寻找你所在地附近的特定飞行课程、跳伞或其他飞行体验。

跑道

Id 标题 侧风 逆风 侧风 %
8/26 090°-270° 3 kt 8 kt 34 %

逆风成分最大的方向会被突出显示,并用于横风计算。 这并不一定意味着这个方向在使用。

乌云

300 ft FEW 几云
500 ft OVC 乌云密布

温度 & 天气

天气 光 雪
最近的
温度 -2 °C
露点 -3 °C
相对湿度 93%
风寒 -9 °C
Kp-index 2 (0-9)

白天

日出
07:23
中午
11:33
日落
15:42 (7:50)

小工具

你想在你的网站上有一个关于Katowice International Airport的当前航空天气(METAR)的小部件吗?

显示HTML代码

我们和第三方通过cookies跟踪您在我们网站上的互联网行为。如果你继续,我们认为你同意我们的饼干政策